createdAt,value
2022-08-05T00:01:49.007Z,1.92
2022-08-05T00:04:18.312Z,1.88
2022-08-05T00:06:47.105Z,1.73
2022-08-05T00:09:15.805Z,1.88
2022-08-05T00:11:48.440Z,2.03
2022-08-05T00:14:19.389Z,2.08
2022-08-05T00:16:53.141Z,2.15
2022-08-05T00:19:22.506Z,2.15
2022-08-05T00:21:52.171Z,2.50
2022-08-05T00:24:24.808Z,2.47
2022-08-05T00:26:59.118Z,2.60
2022-08-05T00:29:37.760Z,2.03
2022-08-05T00:32:12.301Z,2.22
2022-08-05T00:35:05.391Z,1.95
2022-08-05T00:37:35.747Z,2.22
2022-08-05T00:40:27.114Z,1.90
2022-08-05T00:42:58.870Z,1.88
2022-08-05T00:45:38.783Z,1.92
2022-08-05T00:48:13.331Z,1.95
2022-08-05T00:50:45.812Z,1.95
2022-08-05T00:53:45.432Z,2.15
2022-08-05T00:56:04.459Z,2.13
2022-08-05T00:58:32.498Z,2.50
2022-08-05T01:01:02.212Z,2.10
2022-08-05T01:03:37.257Z,2.20
2022-08-05T01:06:06.181Z,2.20
2022-08-05T01:08:42.997Z,2.05
2022-08-05T01:11:33.681Z,1.90
2022-08-05T01:14:15.805Z,2.42
2022-08-05T01:16:59.493Z,2.33
2022-08-05T01:20:00.733Z,2.20
2022-08-05T01:22:52.441Z,1.98
2022-08-05T01:25:53.513Z,2.17
2022-08-05T01:28:33.956Z,2.38
2022-08-05T01:31:11.639Z,2.22
2022-08-05T01:33:49.239Z,2.00
2022-08-05T01:36:28.072Z,2.90
2022-08-05T01:39:01.205Z,2.63
2022-08-05T01:41:35.524Z,3.10
2022-08-05T01:44:09.870Z,3.00
2022-08-05T01:46:46.204Z,3.10
2022-08-05T01:49:23.908Z,2.90
2022-08-05T01:51:59.636Z,3.15
2022-08-05T01:54:46.236Z,3.30
2022-08-05T01:58:09.943Z,3.10
2022-08-05T02:00:12.611Z,3.00
2022-08-05T02:02:53.644Z,3.67
2022-08-05T02:05:28.599Z,3.42
2022-08-05T02:08:01.041Z,3.83
2022-08-05T02:10:40.577Z,3.72
2022-08-05T02:13:16.863Z,3.70
2022-08-05T02:15:54.898Z,3.20
2022-08-05T02:18:34.806Z,3.95
2022-08-05T02:21:14.935Z,4.07
2022-08-05T02:23:48.506Z,4.63
2022-08-05T02:26:26.597Z,4.25
2022-08-05T02:28:58.319Z,4.70
2022-08-05T02:31:34.869Z,4.93
2022-08-05T02:34:11.727Z,5.00
2022-08-05T02:36:46.882Z,5.10
2022-08-05T02:39:21.496Z,4.90
2022-08-05T02:42:00.440Z,5.07
2022-08-05T02:44:31.789Z,5.30
2022-08-05T02:47:02.809Z,4.57
2022-08-05T02:49:37.921Z,5.40
2022-08-05T02:52:29.543Z,4.93
2022-08-05T02:55:01.915Z,5.28
2022-08-05T02:58:11.717Z,4.80
2022-08-05T03:00:25.451Z,5.60
2022-08-05T03:02:58.999Z,5.43
2022-08-05T03:06:55.218Z,5.20
2022-08-05T03:08:16.843Z,4.93
2022-08-05T03:11:55.826Z,5.07
2022-08-05T03:13:51.798Z,5.13
2022-08-05T03:16:31.660Z,4.97
2022-08-05T03:19:01.272Z,5.13
2022-08-05T03:21:41.597Z,5.20
2022-08-05T03:24:17.961Z,5.50
2022-08-05T03:26:58.040Z,5.10
2022-08-05T03:29:45.705Z,5.85
2022-08-05T03:32:16.419Z,5.32
2022-08-05T03:34:51.055Z,5.70
2022-08-05T03:37:22.615Z,5.40
2022-08-05T03:40:01.215Z,6.07
2022-08-05T03:42:32.952Z,5.80
2022-08-05T03:45:22.551Z,5.80
2022-08-05T03:47:51.854Z,5.85
2022-08-05T03:50:44.311Z,5.30
2022-08-05T03:55:49.775Z,6.32
2022-08-05T03:56:17.973Z,5.20
2022-08-05T03:59:02.265Z,5.32
2022-08-05T04:01:33.783Z,4.95
2022-08-05T04:04:09.877Z,5.60
2022-08-05T04:06:47.575Z,5.68
2022-08-05T04:09:20.216Z,4.97
2022-08-05T04:11:56.581Z,5.47
2022-08-05T04:14:29.535Z,5.70
2022-08-05T04:17:00.943Z,7.00
2022-08-05T04:19:31.471Z,5.88
2022-08-05T04:22:08.048Z,6.55
2022-08-05T04:24:44.059Z,6.90
2022-08-05T04:27:14.215Z,6.85
2022-08-05T04:29:43.984Z,6.53
2022-08-05T04:32:13.400Z,7.00
2022-08-05T04:34:43.835Z,6.50
2022-08-05T04:37:13.403Z,5.60
2022-08-05T04:39:41.663Z,5.65
2022-08-05T04:42:10.472Z,5.95
2022-08-05T04:44:39.323Z,5.95
2022-08-05T04:47:09.432Z,6.30
2022-08-05T04:50:01.701Z,4.90
2022-08-05T04:52:29.425Z,5.28
2022-08-05T04:55:02.379Z,6.07
2022-08-05T04:58:37.977Z,5.70
2022-08-05T05:02:07.852Z,4.95
2022-08-05T05:04:06.710Z,5.80
2022-08-05T05:06:44.013Z,5.55
2022-08-05T05:09:17.359Z,5.80
2022-08-05T05:11:55.422Z,5.80
2022-08-05T05:14:31.306Z,5.38
2022-08-05T05:17:00.257Z,5.72
2022-08-05T05:19:37.029Z,5.70
2022-08-05T05:22:22.705Z,5.50
2022-08-05T05:24:57.548Z,6.00
2022-08-05T05:27:41.707Z,5.75
2022-08-05T05:30:29.602Z,5.75
2022-08-05T05:33:16.092Z,6.38
2022-08-05T05:35:47.395Z,5.50
2022-08-05T05:38:22.874Z,5.20
2022-08-05T05:40:57.659Z,5.45
2022-08-05T05:43:54.318Z,6.05
2022-08-05T05:46:17.483Z,5.30
2022-08-05T05:48:48.869Z,5.97
2022-08-05T05:51:22.223Z,5.40
2022-08-05T05:53:57.583Z,5.70
2022-08-05T05:56:32.387Z,5.50
2022-08-05T05:59:05.796Z,6.32
2022-08-05T06:01:37.566Z,5.78
2022-08-05T06:04:11.945Z,6.05
2022-08-05T06:06:42.591Z,5.72
2022-08-05T06:09:17.655Z,5.93
2022-08-05T06:12:01.386Z,6.13
2022-08-05T06:14:30.501Z,5.85
2022-08-05T06:16:59.620Z,5.88
2022-08-05T06:19:34.618Z,6.63
2022-08-05T06:22:03.748Z,6.20
2022-08-05T06:24:32.006Z,6.57
2022-08-05T06:27:01.531Z,6.10
2022-08-05T06:29:49.287Z,5.80
2022-08-05T06:32:25.307Z,5.93
2022-08-05T06:34:56.848Z,5.70
2022-08-05T06:37:56.370Z,6.68
2022-08-05T06:40:18.155Z,5.88
2022-08-05T06:42:51.586Z,5.75
2022-08-05T06:45:44.730Z,6.13
2022-08-05T06:48:47.409Z,5.78
2022-08-05T06:51:00.261Z,5.30
2022-08-05T06:53:29.236Z,5.65
2022-08-05T06:55:59.287Z,5.18
2022-08-05T06:58:36.315Z,4.50
2022-08-05T07:01:07.853Z,4.65
2022-08-05T07:03:36.448Z,4.07
2022-08-05T07:06:14.389Z,4.22
2022-08-05T07:08:47.754Z,5.10
2022-08-05T07:11:22.304Z,4.00
2022-08-05T07:14:19.954Z,4.30
2022-08-05T07:17:58.189Z,3.85
2022-08-05T07:20:34.127Z,4.45
2022-08-05T07:22:38.773Z,4.40
2022-08-05T07:25:53.866Z,3.97
2022-08-05T07:28:05.379Z,4.97
2022-08-05T07:30:39.953Z,4.90
2022-08-05T07:33:16.479Z,3.92
2022-08-05T07:36:02.192Z,4.95
2022-08-05T07:38:43.086Z,4.53
2022-08-05T07:42:14.193Z,4.40
2022-08-05T07:44:18.528Z,4.53
2022-08-05T07:46:50.404Z,4.70
2022-08-05T07:49:19.410Z,4.40
2022-08-05T07:51:54.038Z,4.57
2022-08-05T07:54:30.821Z,4.40
2022-08-05T07:57:13.831Z,4.43
2022-08-05T07:59:52.141Z,4.57
2022-08-05T08:02:31.450Z,4.35
2022-08-05T08:05:14.800Z,4.32
2022-08-05T08:07:59.535Z,4.07
2022-08-05T08:10:29.351Z,4.15
2022-08-05T08:12:58.761Z,4.22
2022-08-05T08:15:37.287Z,4.63
2022-08-05T08:18:20.974Z,4.40
2022-08-05T08:21:02.819Z,3.75
2022-08-05T08:24:02.441Z,3.83
2022-08-05T08:26:29.610Z,3.53
2022-08-05T08:29:21.796Z,3.55
2022-08-05T08:31:48.395Z,3.50
2022-08-05T08:34:18.737Z,3.00
2022-08-05T08:37:04.806Z,3.58
2022-08-05T08:39:37.192Z,3.17
2022-08-05T08:42:33.638Z,3.33
2022-08-05T08:45:22.975Z,3.20
2022-08-05T08:48:10.445Z,3.47
2022-08-05T08:51:03.772Z,3.88
2022-08-05T08:53:44.226Z,3.67
2022-08-05T08:56:12.485Z,3.60
2022-08-05T08:58:47.676Z,3.22
2022-08-05T09:01:18.633Z,4.00
2022-08-05T09:03:55.712Z,3.35
2022-08-05T09:06:30.237Z,3.10
2022-08-05T09:09:01.101Z,3.60
2022-08-05T09:11:50.956Z,3.50
2022-08-05T09:14:56.383Z,3.30
2022-08-05T09:17:16.148Z,3.15
2022-08-05T09:20:02.772Z,3.00
2022-08-05T09:23:09.611Z,2.97
2022-08-05T09:26:01.913Z,3.20
2022-08-05T09:28:31.692Z,3.15
2022-08-05T09:31:44.095Z,3.22
2022-08-05T09:33:56.265Z,2.75
2022-08-05T09:36:27.923Z,2.85
2022-08-05T09:39:18.161Z,3.13
2022-08-05T09:41:59.382Z,2.65
2022-08-05T09:44:38.629Z,2.75
2022-08-05T09:47:15.634Z,2.72
2022-08-05T09:50:00.559Z,2.88
2022-08-05T09:52:32.525Z,2.70
2022-08-05T09:55:21.150Z,2.70
2022-08-05T09:57:54.357Z,2.63
2022-08-05T10:00:25.796Z,2.53
2022-08-05T10:02:58.088Z,2.60
2022-08-05T10:05:32.825Z,2.30
2022-08-05T10:08:35.973Z,2.28
2022-08-05T10:10:54.799Z,2.95
2022-08-05T10:13:48.047Z,2.15
2022-08-05T10:16:34.293Z,3.05
2022-08-05T10:19:11.821Z,2.80
2022-08-05T10:21:41.063Z,2.75
2022-08-05T10:24:13.506Z,3.03
2022-08-05T10:26:51.320Z,2.70
2022-08-05T10:29:24.205Z,2.72
2022-08-05T10:32:54.150Z,3.15
2022-08-05T10:35:00.703Z,2.85
2022-08-05T10:37:40.363Z,2.90
2022-08-05T10:40:28.119Z,2.50
2022-08-05T10:43:08.409Z,2.50
2022-08-05T10:45:42.058Z,2.75
2022-08-05T10:48:52.499Z,2.55
2022-08-05T10:51:29.035Z,2.72
2022-08-05T10:54:00.895Z,2.53
2022-08-05T10:56:38.528Z,2.50
2022-08-05T11:00:01.340Z,2.20
2022-08-05T11:02:14.598Z,2.17
2022-08-05T11:04:58.746Z,2.70
2022-08-05T11:07:32.966Z,2.70
2022-08-05T11:10:27.766Z,2.30
2022-08-05T11:12:59.058Z,2.00
2022-08-05T11:16:01.278Z,2.35
2022-08-05T11:18:32.439Z,2.05
2022-08-05T11:21:03.081Z,2.08
2022-08-05T11:24:05.660Z,1.80
2022-08-05T11:26:43.411Z,1.60
2022-08-05T11:29:40.317Z,1.80
2022-08-05T11:32:27.834Z,2.03
2022-08-05T11:34:57.657Z,2.10
2022-08-05T11:38:26.182Z,2.00
2022-08-05T11:41:12.828Z,2.13
2022-08-05T11:44:01.105Z,2.60
2022-08-05T11:46:37.901Z,2.45
2022-08-05T11:49:27.664Z,2.20
2022-08-05T11:51:57.524Z,2.65
2022-08-05T11:54:33.489Z,2.47
2022-08-05T11:57:08.534Z,2.60
2022-08-05T11:59:53.324Z,2.85
2022-08-05T12:02:31.898Z,2.67
2022-08-05T12:05:07.189Z,2.60
2022-08-05T12:08:03.703Z,2.50
2022-08-05T12:10:43.018Z,2.70
2022-08-05T12:13:17.298Z,2.67
2022-08-05T12:15:56.067Z,2.72
2022-08-05T12:18:33.005Z,3.05
2022-08-05T12:21:17.923Z,3.55
2022-08-05T12:24:05.224Z,2.88
2022-08-05T12:26:35.403Z,3.03
2022-08-05T12:29:06.061Z,3.85
2022-08-05T12:31:45.978Z,3.75
2022-08-05T12:34:23.512Z,2.75
2022-08-05T12:36:55.657Z,3.10
2022-08-05T12:39:27.907Z,3.63
2022-08-05T12:42:03.709Z,3.30
2022-08-05T12:44:34.176Z,3.70
2022-08-05T12:47:03.851Z,3.08
2022-08-05T12:50:03.065Z,3.03
2022-08-05T12:52:42.073Z,3.00
2022-08-05T12:55:25.329Z,2.63
2022-08-05T12:58:38.769Z,2.70
2022-08-05T13:02:03.203Z,2.70
2022-08-05T13:03:41.645Z,2.80
2022-08-05T13:06:13.995Z,3.05
2022-08-05T13:08:51.674Z,3.28
2022-08-05T13:11:25.479Z,3.00
2022-08-05T13:14:24.666Z,2.80
2022-08-05T13:17:08.095Z,2.95
2022-08-05T13:19:51.680Z,3.08
2022-08-05T13:22:27.731Z,3.50
2022-08-05T13:25:05.532Z,3.63
2022-08-05T13:27:38.749Z,3.00
2022-08-05T13:30:33.862Z,2.30
2022-08-05T13:33:01.471Z,2.55
2022-08-05T13:35:42.645Z,1.90
2022-08-05T13:38:28.350Z,2.08
2022-08-05T13:41:01.600Z,1.70
2022-08-05T13:43:45.131Z,1.65
2022-08-05T13:46:35.697Z,1.80
2022-08-05T13:49:10.198Z,1.73
2022-08-05T13:51:41.366Z,1.40
2022-08-05T13:54:12.498Z,1.70
2022-08-05T13:56:45.558Z,1.60
2022-08-05T13:59:21.454Z,1.67
2022-08-05T14:01:57.892Z,1.75
2022-08-05T14:04:49.625Z,1.70
2022-08-05T14:07:25.715Z,1.50
2022-08-05T14:10:12.107Z,1.45
2022-08-05T14:12:43.178Z,1.20
2022-08-05T14:16:04.879Z,1.20
2022-08-05T14:18:14.665Z,1.10
2022-08-05T14:20:47.306Z,1.20
2022-08-05T14:23:24.082Z,1.00
2022-08-05T14:25:54.285Z,0.90
2022-08-05T14:28:26.733Z,0.90
2022-08-05T14:30:57.785Z,0.80
2022-08-05T14:33:26.966Z,0.88
2022-08-05T14:35:55.092Z,1.00
2022-08-05T14:38:31.905Z,0.80
2022-08-05T14:41:06.459Z,0.77
2022-08-05T14:44:00.194Z,0.90
2022-08-05T14:46:28.098Z,0.80
2022-08-05T14:49:06.918Z,0.85
2022-08-05T14:51:38.007Z,0.70
2022-08-05T14:54:26.619Z,0.90
2022-08-05T14:56:55.458Z,0.90
2022-08-05T14:59:25.286Z,1.00
2022-08-05T15:01:58.273Z,0.70
2022-08-05T15:04:29.050Z,0.70
2022-08-05T15:06:57.419Z,0.85
2022-08-05T15:09:51.177Z,0.95
2022-08-05T15:12:16.499Z,1.20
2022-08-05T15:14:50.043Z,0.80
2022-08-05T15:17:45.867Z,0.70
2022-08-05T15:20:19.023Z,0.60
2022-08-05T15:22:52.155Z,0.85
2022-08-05T15:25:41.170Z,0.80
2022-08-05T15:28:16.204Z,0.90
2022-08-05T15:30:46.695Z,0.93
2022-08-05T15:33:56.961Z,0.85
2022-08-05T15:36:17.548Z,0.80
2022-08-05T15:40:59.879Z,0.68
2022-08-05T15:41:57.651Z,0.60
2022-08-05T15:44:27.942Z,0.52
2022-08-05T15:47:01.694Z,0.60
2022-08-05T15:49:48.171Z,0.80
2022-08-05T15:52:29.108Z,0.80
2022-08-05T15:54:57.798Z,0.80
2022-08-05T15:57:27.829Z,0.73
2022-08-05T16:00:06.530Z,0.80
2022-08-05T16:02:36.688Z,0.63
2022-08-05T16:05:06.428Z,0.82
2022-08-05T16:07:37.935Z,0.70
2022-08-05T16:10:14.462Z,0.77
2022-08-05T16:12:42.896Z,0.77
2022-08-05T16:15:11.780Z,0.82
2022-08-05T16:17:57.383Z,0.70
2022-08-05T16:20:27.889Z,0.43
2022-08-05T16:22:56.199Z,0.50
2022-08-05T16:25:32.137Z,1.45
2022-08-05T16:28:06.022Z,1.58
2022-08-05T16:30:36.128Z,1.10
2022-08-05T16:33:05.842Z,0.57
2022-08-05T16:35:42.508Z,0.82
2022-08-05T16:38:24.728Z,0.77
2022-08-05T16:40:59.724Z,0.65
2022-08-05T16:43:32.095Z,0.70
2022-08-05T16:46:06.068Z,0.70
2022-08-05T16:48:39.050Z,0.70
2022-08-05T16:51:10.472Z,0.60
2022-08-05T16:54:02.580Z,0.70
2022-08-05T16:56:31.231Z,0.80
2022-08-05T16:59:00.766Z,0.73
2022-08-05T17:01:36.096Z,0.73
2022-08-05T17:04:19.494Z,0.90
2022-08-05T17:06:53.545Z,0.60
2022-08-05T17:09:23.095Z,0.70
2022-08-05T17:11:55.933Z,0.50
2022-08-05T17:14:34.370Z,0.47
2022-08-05T17:17:07.436Z,0.70
2022-08-05T17:19:46.505Z,0.65
2022-08-05T17:22:25.631Z,0.70
2022-08-05T17:24:56.956Z,1.00
2022-08-05T17:27:34.252Z,0.80
2022-08-05T17:30:04.769Z,1.05
2022-08-05T17:32:41.958Z,0.90
2022-08-05T17:35:12.612Z,0.90
2022-08-05T17:37:45.348Z,0.70
2022-08-05T17:40:22.617Z,0.82
2022-08-05T17:42:52.915Z,0.80
2022-08-05T17:45:24.771Z,0.70
2022-08-05T17:47:56.137Z,0.73
2022-08-05T17:50:30.489Z,0.70
2022-08-05T17:53:01.738Z,0.80
2022-08-05T17:55:37.911Z,0.73
2022-08-05T17:58:12.263Z,0.77
2022-08-05T18:00:45.028Z,0.70
2022-08-05T18:06:12.244Z,0.68
2022-08-05T18:08:46.223Z,0.60
2022-08-05T18:11:23.637Z,0.80
2022-08-05T18:13:59.718Z,0.80
2022-08-05T18:16:27.924Z,0.60
2022-08-05T18:18:55.933Z,0.75
2022-08-05T18:22:07.568Z,0.70
2022-08-05T18:24:14.820Z,0.80
2022-08-05T18:26:43.907Z,0.80
2022-08-05T18:29:12.033Z,0.68
2022-08-05T18:31:44.968Z,0.80
2022-08-05T18:34:14.208Z,0.80
2022-08-05T18:36:44.286Z,0.60
2022-08-05T18:39:42.239Z,0.80
2022-08-05T18:42:05.046Z,0.75
2022-08-05T18:44:51.668Z,0.73
2022-08-05T18:47:26.727Z,0.68
2022-08-05T18:50:13.380Z,0.90
2022-08-05T18:52:51.071Z,0.70
2022-08-05T18:55:21.518Z,0.70
2022-08-05T18:57:53.870Z,0.65
2022-08-05T19:00:28.413Z,0.75
2022-08-05T19:02:57.693Z,0.65
2022-08-05T19:06:12.424Z,0.70
2022-08-05T19:08:21.627Z,0.90
2022-08-05T19:10:50.329Z,0.90
2022-08-05T19:13:19.741Z,0.57
2022-08-05T19:15:57.230Z,0.60
2022-08-05T19:18:28.595Z,0.55
2022-08-05T19:20:56.941Z,0.70
2022-08-05T19:24:06.563Z,0.60
2022-08-05T19:26:16.346Z,0.88
2022-08-05T19:28:44.467Z,0.90
2022-08-05T19:31:17.973Z,0.70
2022-08-05T19:33:56.840Z,0.82
2022-08-05T19:36:26.359Z,0.90
2022-08-05T19:38:58.867Z,0.90
2022-08-05T19:42:03.392Z,0.75
2022-08-05T19:44:18.520Z,0.90
2022-08-05T19:46:47.099Z,0.90
2022-08-05T19:49:16.978Z,0.90
2022-08-05T19:52:04.552Z,0.70
2022-08-05T19:54:37.040Z,0.88
2022-08-05T19:57:09.485Z,0.75
2022-08-05T22:07:59.134Z,1.17
2022-08-05T22:10:30.941Z,1.00
2022-08-05T22:13:08.707Z,1.13
2022-08-05T22:16:01.748Z,0.98
2022-08-05T22:18:35.865Z,1.17
2022-08-05T22:21:19.209Z,1.20
2022-08-05T22:24:40.657Z,1.00
2022-08-05T22:27:20.810Z,1.00
2022-08-05T22:29:49.373Z,1.10
2022-08-05T22:32:22.942Z,1.50
2022-08-05T22:34:51.208Z,1.10
2022-08-05T22:37:19.166Z,1.30
2022-08-05T22:39:50.477Z,1.40
2022-08-05T22:42:25.326Z,1.00
2022-08-05T22:44:56.676Z,1.20
2022-08-05T22:47:29.017Z,0.95
2022-08-05T22:50:20.444Z,1.25
2022-08-05T22:52:49.544Z,0.90
2022-08-05T22:55:21.352Z,1.20
2022-08-05T22:57:51.089Z,1.00
2022-08-05T23:00:21.443Z,1.25
2022-08-05T23:02:50.466Z,1.27
2022-08-05T23:05:21.962Z,1.10
2022-08-05T23:07:51.115Z,1.40
2022-08-05T23:10:23.563Z,1.40
2022-08-05T23:12:54.937Z,1.25
2022-08-05T23:15:29.670Z,1.20
2022-08-05T23:18:03.380Z,1.20
2022-08-05T23:20:33.812Z,1.17
2022-08-05T23:23:08.675Z,1.38
2022-08-05T23:25:50.922Z,1.05
2022-08-05T23:28:26.904Z,1.20
2022-08-05T23:31:02.365Z,1.17
2022-08-05T23:34:04.794Z,1.30
2022-08-05T23:36:39.710Z,1.40
2022-08-05T23:39:17.600Z,1.20
2022-08-05T23:41:54.056Z,1.30
2022-08-05T23:44:27.868Z,1.20
2022-08-05T23:47:00.302Z,1.10
2022-08-05T23:49:36.045Z,1.20
2022-08-05T23:52:25.189Z,1.10
2022-08-05T23:54:54.584Z,1.33
2022-08-05T23:57:31.436Z,1.05
